Estació municipal de Susqueda - St. Martí Sacalm (La Selva, )

Consulta les dades en temps real de l'estació municipal de Susqueda - St. Martí Sacalm





Hora UTC 03:30
Temperatura 23.2 ºC
Humitat 53.5 %
Pressió 1024.1 hPa
Pluja 0.0 mm
Velocitat vent 8.9 km/h
Direcció vent SW
Radiació solar 0.1 W/m²

Dades diàries 2026-09-06



Hora UTC (hivern +1h; estiu +2h)
Temperatura (ºC) Humitat (%) Pressió (hPa) Velocitat vent (km/h) Precipitació (mm) Radiació solar (W/m²)
Hora UTC Aire Humitat Pressió Vel. Dir. Vel. Max Dir. Intent. màx 5 min. Rad. Sol.
00:05 24.3 49.0 1024.7 9.8 SW 9.8 SW 0.0 0.2
00:10 24.3 48.9 1024.7 9.6 SW 12.0 SW 0.0 0.1
00:15 24.3 48.9 1024.7 8.4 SW 11.3 SW 0.0 0.1
00:20 24.4 48.7 1024.7 9.2 SW 12.7 SSW 0.0 0.1
00:25 24.5 48.8 1024.6 11.6 SW 15.5 SW 0.0 0.1
00:30 24.4 49.1 1024.6 11.2 SW 14.5 SW 0.0 0.1
00:35 24.2 49.8 1024.6 9.2 SW 11.0 SW 0.0 0.1
00:40 24.1 50.1 1024.5 8.4 SW 10.3 SW 0.0 0.1
00:45 24.1 50.0 1024.5 9.9 SW 12.7 SW 0.0 0.1
00:50 24.3 49.4 1024.5 10.8 SW 13.1 SW 0.0 0.2
00:55 24.1 50.1 1024.5 10.0 SSW 12.7 SSW 0.0 0.1
01:00 23.8 51.0 1024.5 8.5 SW 11.3 SSW 0.0 0.1
01:05 23.8 51.1 1024.5 9.6 SW 12.0 SW 0.0 0.1
01:10 23.7 51.2 1024.5 9.6 SW 12.7 SW 0.0 0.1
01:15 23.9 50.8 1024.4 10.4 SW 13.8 SW 0.0 0.1
01:20 24.2 50.2 1024.4 11.1 SW 13.8 SW 0.0 0.1
01:25 24.1 50.3 1024.4 11.1 SW 14.8 SW 0.0 0.1
01:30 23.9 50.9 1024.4 10.5 SW 12.7 SW 0.0 0.1
01:35 23.8 51.2 1024.4 10.3 SW 12.7 SSW 0.0 0.1
01:40 23.7 51.5 1024.4 10.1 SW 12.7 SW 0.0 0.1
01:45 23.6 51.6 1024.4 10.2 SW 12.4 SSW 0.0 0.1
01:50 23.6 51.8 1024.4 9.5 SW 12.4 SSW 0.0 0.1
01:55 23.5 52.1 1024.4 9.3 SW 12.4 SW 0.0 0.1
02:00 23.6 51.9 1024.4 8.8 SW 11.3 SW 0.0 0.1
02:05 23.8 51.5 1024.4 8.6 SW 11.0 SW 0.0 0.1
02:10 24.0 51.0 1024.4 9.5 SW 11.7 SW 0.0 0.1
02:15 24.0 51.0 1024.4 8.7 SW 10.3 SW 0.0 0.2
02:20 24.0 51.1 1024.4 9.1 SSW 10.6 SSW 0.0 0.1
02:25 23.9 51.5 1024.3 8.6 SSW 11.0 SSW 0.0 0.1
02:30 23.8 51.8 1024.3 7.6 SSW 10.3 SSW 0.0 0.1
02:35 23.5 52.4 1024.3 6.9 SW 9.5 SW 0.0 0.1
02:40 23.5 52.4 1024.2 7.9 SW 10.6 SW 0.0 0.1
02:45 23.4 52.7 1024.2 9.5 SW 12.7 SW 0.0 0.1
02:50 23.5 52.5 1024.2 9.6 SW 11.7 SW 0.0 0.1
02:55 23.6 52.4 1024.1 9.9 SW 13.1 SW 0.0 0.1
03:00 23.5 52.6 1024.1 10.6 SW 14.1 SW 0.0 0.1
03:05 23.5 52.7 1024.1 11.9 SW 16.6 SW 0.0 0.1
03:10 23.5 52.8 1024.1 9.9 SW 13.1 SSW 0.0 0.1
03:15 23.3 53.3 1024.1 9.3 SW 12.7 SW 0.0 0.1
03:20 23.2 53.5 1024.1 8.4 SW 10.6 SW 0.0 0.1
03:25 23.3 53.2 1024.1 9.0 SW 11.3 SW 0.0 0.1
03:30 23.2 53.5 1024.1 8.9 SW 12.0 SSW 0.0 0.1
Màxima 24.5 53.5 1024.7 11.9 SW 16.6 SW 0.0 0.2
Mínima 20 48.7 1024.1
Total 0.0